createdAt,value
2023-04-15T00:00:17.586Z,0.00
2023-04-15T00:01:17.579Z,0.00
2023-04-15T00:02:17.640Z,0.00
2023-04-15T00:03:17.783Z,0.00
2023-04-15T00:04:17.614Z,0.00
2023-04-15T00:05:17.523Z,0.00
2023-04-15T00:06:17.503Z,0.00
2023-04-15T00:07:17.484Z,0.00
2023-04-15T00:08:17.473Z,0.00
2023-04-15T00:09:17.464Z,0.00
2023-04-15T00:10:17.459Z,0.00
2023-04-15T00:11:17.445Z,0.00
2023-04-15T00:12:17.437Z,0.00
2023-04-15T00:13:17.461Z,0.00
2023-04-15T00:14:17.396Z,0.00
2023-04-15T00:15:17.385Z,0.00
2023-04-15T00:16:17.425Z,0.00
2023-04-15T00:17:17.376Z,0.00
2023-04-15T00:18:17.381Z,0.00
2023-04-15T00:19:17.339Z,0.00
2023-04-15T00:20:17.317Z,0.00
2023-04-15T00:21:17.301Z,0.00
2023-04-15T00:22:17.308Z,0.00
2023-04-15T00:23:17.328Z,0.00
2023-04-15T00:24:17.278Z,0.00
2023-04-15T00:25:17.248Z,0.00
2023-04-15T00:26:17.233Z,0.00
2023-04-15T00:27:17.248Z,0.00
2023-04-15T00:28:17.224Z,0.00
2023-04-15T00:29:17.208Z,0.00
2023-04-15T00:30:17.249Z,0.00
2023-04-15T00:31:17.262Z,0.00
2023-04-15T00:32:17.185Z,0.00
2023-04-15T00:33:17.201Z,0.00
2023-04-15T00:34:17.142Z,0.00
2023-04-15T00:35:17.138Z,0.00
2023-04-15T00:36:17.132Z,0.00
2023-04-15T00:37:17.093Z,0.00
2023-04-15T00:38:24.933Z,0.00
2023-04-15T00:39:18.793Z,0.00
2023-04-15T00:40:19.044Z,0.00
2023-04-15T00:41:18.693Z,0.00
2023-04-15T00:42:17.861Z,0.00
2023-04-15T00:43:19.064Z,0.00
2023-04-15T00:44:18.740Z,0.00
2023-04-15T00:45:18.898Z,0.00
2023-04-15T00:46:18.690Z,0.00
2023-04-15T00:47:18.785Z,0.00
2023-04-15T00:48:18.960Z,0.00
2023-04-15T00:49:18.691Z,0.00
2023-04-15T00:50:18.861Z,0.00
2023-04-15T00:51:18.538Z,0.00
2023-04-15T00:52:18.733Z,0.00
2023-04-15T00:53:18.890Z,0.00
2023-04-15T00:54:18.572Z,0.00
2023-04-15T00:55:18.738Z,0.00
2023-04-15T00:56:18.409Z,0.00
2023-04-15T00:57:18.577Z,0.00
2023-04-15T00:58:18.725Z,0.00
2023-04-15T00:59:18.412Z,0.00
2023-04-15T01:00:18.575Z,0.00
2023-04-15T01:01:18.733Z,0.00
2023-04-15T01:02:18.585Z,0.00
2023-04-15T01:03:18.761Z,0.00
2023-04-15T01:04:18.884Z,0.00
2023-04-15T01:05:18.428Z,0.00
2023-04-15T01:06:18.612Z,0.00
2023-04-15T01:07:18.270Z,0.00
2023-04-15T01:08:18.435Z,0.00
2023-04-15T01:09:18.616Z,0.00
2023-04-15T01:10:18.292Z,0.00
2023-04-15T01:11:18.473Z,0.00
2023-04-15T01:12:18.656Z,0.00
2023-04-15T01:13:18.321Z,0.00
2023-04-15T01:14:18.477Z,0.00
2023-04-15T01:15:18.142Z,0.00
2023-04-15T01:16:18.366Z,0.00
2023-04-15T01:17:18.507Z,0.00
2023-04-15T01:18:19.160Z,0.00
2023-04-15T01:19:18.384Z,0.00
2023-04-15T01:20:18.545Z,0.00
2023-04-15T01:21:18.214Z,0.00
2023-04-15T01:22:18.366Z,0.00
2023-04-15T01:23:18.032Z,0.00
2023-04-15T01:24:18.239Z,0.00
2023-04-15T01:25:18.477Z,0.00
2023-04-15T01:26:18.173Z,0.00
2023-04-15T01:27:18.344Z,0.00
2023-04-15T01:28:18.009Z,0.00
2023-04-15T01:29:18.206Z,0.00
2023-04-15T01:30:18.387Z,0.00
2023-04-15T01:31:19.150Z,0.00
2023-04-15T01:32:18.235Z,0.00
2023-04-15T01:33:17.904Z,0.00
2023-04-15T01:34:18.053Z,0.00
2023-04-15T01:35:18.277Z,0.00
2023-04-15T01:36:17.917Z,0.00
2023-04-15T01:37:19.077Z,0.00
2023-04-15T01:38:16.358Z,0.00
2023-04-15T01:39:18.017Z,0.00
2023-04-15T01:40:18.193Z,0.00
2023-04-15T01:41:17.865Z,0.00
2023-04-15T01:42:18.049Z,0.00
2023-04-15T01:43:16.318Z,0.00
2023-04-15T01:44:17.950Z,0.00
2023-04-15T01:45:18.083Z,0.00
2023-04-15T01:46:17.771Z,0.00
2023-04-15T01:47:17.948Z,0.00
2023-04-15T01:48:17.098Z,0.00
2023-04-15T01:49:17.764Z,0.00
2023-04-15T01:50:17.962Z,0.00
2023-04-15T01:51:18.073Z,0.00
2023-04-15T01:52:17.765Z,0.00
2023-04-15T01:53:17.958Z,0.00
2023-04-15T01:54:18.125Z,0.00
2023-04-15T01:55:17.801Z,0.00
2023-04-15T01:56:17.977Z,0.00
2023-04-15T01:57:17.655Z,0.00
2023-04-15T01:58:17.842Z,0.00
2023-04-15T01:59:17.992Z,0.00
2023-04-15T02:00:17.632Z,0.00
2023-04-15T02:01:17.104Z,0.00
2023-04-15T02:02:17.729Z,0.00
2023-04-15T02:03:17.958Z,0.00
2023-04-15T02:04:17.574Z,0.00
2023-04-15T02:05:17.732Z,0.00
2023-04-15T02:06:17.894Z,0.00
2023-04-15T02:07:17.577Z,0.00
2023-04-15T02:08:17.765Z,0.00
2023-04-15T02:09:17.917Z,0.00
2023-04-15T02:10:17.595Z,0.00
2023-04-15T02:11:17.773Z,0.00
2023-04-15T02:12:17.439Z,0.00
2023-04-15T02:13:17.609Z,0.00
2023-04-15T02:14:17.791Z,0.00
2023-04-15T02:15:17.505Z,0.00
2023-04-15T02:16:17.671Z,0.00
2023-04-15T02:17:17.808Z,0.00
2023-04-15T02:18:17.454Z,0.00
2023-04-15T02:19:17.647Z,0.00
2023-04-15T02:20:18.045Z,0.00
2023-04-15T02:21:17.696Z,0.00
2023-04-15T02:22:17.354Z,0.00
2023-04-15T02:23:17.518Z,0.00
2023-04-15T02:24:17.663Z,0.00
2023-04-15T02:25:17.356Z,0.00
2023-04-15T02:26:17.473Z,0.00
2023-04-15T02:27:17.662Z,0.00
2023-04-15T02:28:17.329Z,0.00
2023-04-15T02:29:17.510Z,0.00
2023-04-15T02:30:17.681Z,0.00
2023-04-15T02:31:17.391Z,0.00
2023-04-15T02:32:17.506Z,0.00
2023-04-15T02:33:17.190Z,0.00
2023-04-15T02:34:17.365Z,0.00
2023-04-15T02:35:17.509Z,0.00
2023-04-15T02:36:17.207Z,0.00
2023-04-15T02:37:17.394Z,0.00
2023-04-15T02:38:17.553Z,0.00
2023-04-15T02:39:17.225Z,0.00
2023-04-15T02:40:17.398Z,0.00
2023-04-15T02:41:17.061Z,0.00
2023-04-15T02:42:17.226Z,0.00
2023-04-15T02:43:17.403Z,0.00
2023-04-15T02:44:15.552Z,0.00
2023-04-15T02:45:17.167Z,0.00
2023-04-15T02:46:17.349Z,0.00
2023-04-15T02:47:16.998Z,0.00
2023-04-15T02:48:17.156Z,0.00
2023-04-15T02:49:15.473Z,0.00
2023-04-15T02:50:17.124Z,0.00
2023-04-15T02:51:17.287Z,0.00
2023-04-15T02:52:16.950Z,0.00
2023-04-15T02:53:17.144Z,0.00
2023-04-15T02:54:15.371Z,0.00
2023-04-15T02:55:17.027Z,0.00
2023-04-15T02:56:17.408Z,0.00
2023-04-15T02:57:16.896Z,0.00
2023-04-15T02:58:17.071Z,0.00
2023-04-15T02:59:17.313Z,0.00
2023-04-15T03:00:16.965Z,0.00
2023-04-15T03:01:18.662Z,0.00
2023-04-15T03:02:17.928Z,0.00
2023-04-15T03:03:17.127Z,0.00
2023-04-15T03:04:17.468Z,0.00
2023-04-15T03:05:16.854Z,0.00
2023-04-15T03:06:17.001Z,0.00
2023-04-15T03:07:17.168Z,0.00
2023-04-15T03:08:16.834Z,0.00
2023-04-15T03:09:17.018Z,0.00
2023-04-15T03:10:16.668Z,0.00
2023-04-15T03:11:16.862Z,0.00
2023-04-15T03:12:17.027Z,0.00
2023-04-15T03:13:16.713Z,0.00
2023-04-15T03:14:16.861Z,0.00
2023-04-15T03:15:17.046Z,0.00
2023-04-15T03:16:16.783Z,0.00
2023-04-15T03:17:16.930Z,0.00
2023-04-15T03:18:16.582Z,0.00
2023-04-15T03:19:16.755Z,0.00
2023-04-15T03:20:17.092Z,0.00
2023-04-15T03:21:16.584Z,0.00
2023-04-15T03:22:16.779Z,0.00
2023-04-15T03:23:16.938Z,0.00
2023-04-15T03:24:16.611Z,0.00
2023-04-15T03:25:14.954Z,0.00
2023-04-15T03:26:16.625Z,0.00
2023-04-15T03:27:16.768Z,0.00
2023-04-15T03:28:16.443Z,0.00
2023-04-15T03:29:16.623Z,0.00
2023-04-15T03:30:15.030Z,0.00
2023-04-15T03:31:16.731Z,0.00
2023-04-15T03:32:16.409Z,0.00
2023-04-15T03:33:16.572Z,0.00
2023-04-15T03:34:16.752Z,0.00
2023-04-15T03:35:16.423Z,0.00
2023-04-15T03:36:16.575Z,0.00
2023-04-15T03:37:16.834Z,0.00
2023-04-15T03:38:16.520Z,0.00
2023-04-15T03:39:16.705Z,0.00
2023-04-15T03:40:16.367Z,0.00
2023-04-15T03:41:16.545Z,0.00
2023-04-15T03:42:16.699Z,0.00
2023-04-15T03:43:16.380Z,0.00
2023-04-15T03:44:16.566Z,0.00
2023-04-15T03:45:16.247Z,0.00
2023-04-15T03:46:16.563Z,0.00
2023-04-15T03:47:16.587Z,4.00
2023-04-15T03:48:18.144Z,4.00
2023-04-15T03:49:16.441Z,4.00
2023-04-15T03:50:16.623Z,4.00
2023-04-15T03:51:16.289Z,0.00
2023-04-15T03:52:16.472Z,4.00
2023-04-15T03:53:16.169Z,4.00
2023-04-15T03:54:16.351Z,4.00
2023-04-15T03:55:16.537Z,4.00
2023-04-15T03:56:14.597Z,8.00
2023-04-15T03:57:16.228Z,4.00
2023-04-15T03:58:16.382Z,8.00
2023-04-15T03:59:16.040Z,8.00
2023-04-15T04:00:16.205Z,8.00
2023-04-15T04:01:16.374Z,8.00
2023-04-15T04:02:16.083Z,16.00
2023-04-15T04:03:16.426Z,16.00
2023-04-15T04:04:16.489Z,16.00
2023-04-15T04:05:16.078Z,20.00
2023-04-15T04:06:16.225Z,20.00
2023-04-15T04:07:17.439Z,24.00
2023-04-15T04:08:16.091Z,28.00
2023-04-15T04:09:16.284Z,28.00
2023-04-15T04:10:15.937Z,36.00
2023-04-15T04:11:16.155Z,36.00
2023-04-15T04:12:16.324Z,36.00
2023-04-15T04:13:16.012Z,44.00
2023-04-15T04:14:16.160Z,48.00
2023-04-15T04:15:15.828Z,52.00
2023-04-15T04:16:16.129Z,56.00
2023-04-15T04:17:15.180Z,60.00
2023-04-15T04:18:15.859Z,68.00
2023-04-15T04:19:16.401Z,72.00
2023-04-15T04:20:16.072Z,76.00
2023-04-15T04:21:16.247Z,84.00
2023-04-15T04:22:15.930Z,92.00
2023-04-15T04:23:16.102Z,100.00
2023-04-15T04:24:15.851Z,108.00
2023-04-15T04:25:15.952Z,116.00
2023-04-15T04:26:16.108Z,128.00
2023-04-15T04:27:15.884Z,144.00
2023-04-15T04:28:15.957Z,156.00
2023-04-15T04:29:16.142Z,172.00
2023-04-15T04:30:15.807Z,188.00
2023-04-15T04:31:15.991Z,204.00
2023-04-15T04:32:15.827Z,224.00
2023-04-15T04:33:15.938Z,244.00
2023-04-15T04:34:15.603Z,264.00
2023-04-15T04:35:15.782Z,280.00
2023-04-15T04:36:15.951Z,300.00
2023-04-15T04:37:15.650Z,320.00
2023-04-15T04:38:15.825Z,340.00
2023-04-15T04:39:15.185Z,364.00
2023-04-15T04:40:15.860Z,388.00
2023-04-15T04:41:15.538Z,412.00
2023-04-15T04:42:15.722Z,444.00
2023-04-15T04:43:15.906Z,468.00
2023-04-15T04:44:15.600Z,500.00
2023-04-15T04:45:15.771Z,524.00
2023-04-15T04:46:15.500Z,556.00
2023-04-15T04:47:15.650Z,588.00
2023-04-15T04:48:15.816Z,620.00
2023-04-15T04:49:13.878Z,648.00
2023-04-15T04:50:15.555Z,676.00
2023-04-15T04:51:15.758Z,712.00
2023-04-15T04:52:15.431Z,740.00
2023-04-15T04:53:15.652Z,772.00
2023-04-15T04:54:15.792Z,796.00
2023-04-15T04:55:15.420Z,820.00
2023-04-15T04:56:15.590Z,828.00
2023-04-15T04:57:15.743Z,840.00
2023-04-15T04:58:15.400Z,852.00
2023-04-15T04:59:15.583Z,864.00
2023-04-15T05:00:15.273Z,868.00
2023-04-15T05:01:15.444Z,876.00
2023-04-15T05:02:15.635Z,868.00
2023-04-15T05:03:15.608Z,856.00
2023-04-15T05:04:15.650Z,836.00
2023-04-15T05:05:15.590Z,820.00
2023-04-15T05:06:15.260Z,804.00
2023-04-15T05:07:15.437Z,792.00
2023-04-15T05:08:15.595Z,772.00
2023-04-15T05:09:15.251Z,748.00
2023-04-15T05:10:15.713Z,724.00
2023-04-15T05:11:15.330Z,708.00
2023-04-15T05:12:15.479Z,700.00
2023-04-15T05:13:15.138Z,704.00
2023-04-15T05:14:15.337Z,708.00
2023-04-15T05:15:13.576Z,724.00
2023-04-15T05:16:15.218Z,740.00
2023-04-15T05:17:15.365Z,752.00
2023-04-15T05:18:15.040Z,752.00
2023-04-15T05:19:15.228Z,748.00
2023-04-15T05:20:14.443Z,744.00
2023-04-15T05:21:15.089Z,748.00
2023-04-15T05:22:15.245Z,760.00
2023-04-15T05:23:15.430Z,784.00
2023-04-15T05:24:15.110Z,820.00
2023-04-15T05:25:15.293Z,868.00
2023-04-15T05:26:14.965Z,920.00
2023-04-15T05:27:15.120Z,964.00
2023-04-15T05:28:15.280Z,1004.00
2023-04-15T05:29:14.960Z,1032.00
2023-04-15T05:30:15.134Z,1060.00
2023-04-15T05:31:15.346Z,1092.00
2023-04-15T05:32:14.985Z,1104.00
2023-04-15T05:33:15.184Z,1108.00
2023-04-15T05:34:14.863Z,1112.00
2023-04-15T05:35:15.016Z,1124.00
2023-04-15T05:36:15.172Z,1132.00
2023-04-15T05:37:14.865Z,1160.00
2023-04-15T05:38:15.018Z,1196.00
2023-04-15T05:39:15.178Z,1232.00
2023-04-15T05:40:14.941Z,1268.00
2023-04-15T05:41:13.222Z,1300.00
2023-04-15T05:42:14.882Z,1328.00
2023-04-15T05:43:15.044Z,1352.00
2023-04-15T05:44:14.717Z,1396.00
2023-04-15T05:45:14.992Z,1448.00
2023-04-15T05:46:15.125Z,1512.00
2023-04-15T05:47:14.724Z,1596.00
2023-04-15T05:48:14.890Z,1684.00
2023-04-15T05:49:15.043Z,1756.00
2023-04-15T05:50:14.708Z,1832.00
2023-04-15T05:51:14.905Z,1900.00
2023-04-15T05:52:15.032Z,1964.00
2023-04-15T05:53:14.732Z,2016.00
2023-04-15T05:54:14.871Z,2040.00
2023-04-15T05:55:15.022Z,2056.00
2023-04-15T05:56:14.712Z,2056.00
2023-04-15T05:57:14.884Z,2048.00
2023-04-15T05:58:14.594Z,2048.00
2023-04-15T05:59:14.756Z,2060.00
2023-04-15T06:00:14.911Z,2084.00
2023-04-15T06:01:14.568Z,2116.00
2023-04-15T06:02:14.770Z,2136.00
2023-04-15T06:03:14.978Z,2164.00
2023-04-15T06:04:14.786Z,2192.00
2023-04-15T06:05:14.908Z,2228.00
2023-04-15T06:06:14.572Z,2260.00
2023-04-15T06:07:12.888Z,2300.00
2023-04-15T06:08:14.530Z,2364.00
2023-04-15T06:09:14.729Z,2416.00
2023-04-15T06:10:14.377Z,2472.00
2023-04-15T06:11:14.546Z,2536.00
2023-04-15T06:12:12.808Z,2608.00
2023-04-15T06:13:14.478Z,2668.00
2023-04-15T06:14:14.662Z,2712.00
2023-04-15T06:15:14.356Z,2744.00
2023-04-15T06:16:14.716Z,2776.00
2023-04-15T06:17:14.681Z,2796.00
2023-04-15T06:18:14.365Z,2820.00
2023-04-15T06:19:14.010Z,2844.00
2023-04-15T06:20:14.659Z,2868.00
2023-04-15T06:21:14.342Z,2912.00
2023-04-15T06:22:14.494Z,2960.00
2023-04-15T06:23:14.667Z,2988.00
2023-04-15T06:24:14.344Z,3016.00
2023-04-15T06:25:14.524Z,3040.00
2023-04-15T06:26:14.188Z,3068.00
2023-04-15T06:27:14.341Z,3104.00
2023-04-15T06:28:14.521Z,3144.00
2023-04-15T06:29:14.203Z,3172.00
2023-04-15T06:30:14.397Z,3176.00
2023-04-15T06:31:14.182Z,3164.00
2023-04-15T06:32:14.321Z,3152.00
2023-04-15T06:33:14.500Z,3132.00
2023-04-15T06:34:14.173Z,3116.00
2023-04-15T06:35:14.349Z,3108.00
2023-04-15T06:36:14.023Z,3120.00
2023-04-15T06:37:14.200Z,3144.00
2023-04-15T06:38:12.477Z,3180.00
2023-04-15T06:39:22.105Z,3216.00
2023-04-15T06:40:12.464Z,3252.00
2023-04-15T06:41:12.484Z,3280.00
2023-04-15T06:42:12.422Z,3312.00
2023-04-15T06:43:12.400Z,3344.00
2023-04-15T06:44:12.393Z,3388.00
2023-04-15T06:45:12.367Z,3440.00
2023-04-15T06:46:12.423Z,3488.00
2023-04-15T06:47:12.367Z,3536.00
2023-04-15T06:48:12.343Z,3580.00
2023-04-15T06:49:12.344Z,3624.00
2023-04-15T06:50:12.348Z,3664.00
2023-04-15T06:51:12.301Z,3696.00
2023-04-15T06:52:12.278Z,3740.00
2023-04-15T06:53:12.300Z,3788.00
2023-04-15T06:54:12.256Z,3836.00
2023-04-15T06:55:12.243Z,3856.00
2023-04-15T06:56:12.244Z,3924.00
2023-04-15T06:57:12.236Z,3968.00
2023-04-15T06:58:12.214Z,3964.00
2023-04-15T06:59:12.243Z,3948.00
2023-04-15T07:00:12.208Z,3964.00
2023-04-15T07:01:12.237Z,3976.00
2023-04-15T07:02:12.172Z,3976.00
2023-04-15T07:03:12.142Z,3980.00
2023-04-15T07:04:12.174Z,4008.00
2023-04-15T07:05:12.124Z,4068.00
2023-04-15T07:06:12.100Z,4116.00
2023-04-15T07:07:12.112Z,4324.00
2023-04-15T07:08:12.113Z,4560.00
2023-04-15T07:09:12.067Z,4748.00
2023-04-15T07:10:12.087Z,4876.00
2023-04-15T07:11:12.029Z,4868.00
2023-04-15T07:12:12.041Z,4884.00
2023-04-15T07:13:12.035Z,4636.00
2023-04-15T07:14:11.992Z,4424.00
2023-04-15T07:15:11.992Z,4128.00
2023-04-15T07:16:12.031Z,3928.00
2023-04-15T07:17:12.008Z,3436.00
2023-04-15T07:18:11.963Z,3048.00
2023-04-15T07:19:11.936Z,2848.00
2023-04-15T07:20:11.928Z,2772.00
2023-04-15T07:21:11.937Z,2844.00
2023-04-15T07:22:11.902Z,2736.00
2023-04-15T07:23:11.868Z,2576.00
2023-04-15T07:24:11.884Z,2532.00
2023-04-15T07:25:11.885Z,2792.00
2023-04-15T07:26:11.841Z,2964.00
2023-04-15T07:27:11.826Z,2804.00
2023-04-15T07:28:11.823Z,2696.00
2023-04-15T07:29:11.802Z,2576.00
2023-04-15T07:30:11.806Z,2368.00
2023-04-15T07:31:11.795Z,2128.00
2023-04-15T07:32:11.757Z,2104.00
2023-04-15T07:33:11.725Z,2004.00
2023-04-15T07:34:11.743Z,1852.00
2023-04-15T07:35:11.724Z,1740.00
2023-04-15T07:36:11.713Z,1836.00
2023-04-15T07:37:11.673Z,1928.00
2023-04-15T07:38:11.685Z,1816.00
2023-04-15T07:39:11.669Z,1940.00
2023-04-15T07:40:11.683Z,1964.00
2023-04-15T07:41:11.652Z,2004.00
2023-04-15T07:42:11.633Z,1924.00
2023-04-15T07:43:11.604Z,1960.00
2023-04-15T07:44:11.629Z,1996.00
2023-04-15T07:45:11.600Z,1844.00
2023-04-15T07:46:11.620Z,1820.00
2023-04-15T07:47:11.559Z,1812.00
2023-04-15T07:48:11.555Z,1844.00
2023-04-15T07:49:11.542Z,2020.00
2023-04-15T07:50:11.590Z,2172.00
2023-04-15T07:51:11.514Z,2100.00
2023-04-15T07:52:11.506Z,2076.00
2023-04-15T07:53:11.499Z,2196.00
2023-04-15T07:54:11.465Z,2312.00
2023-04-15T07:55:11.474Z,2268.00
2023-04-15T07:56:11.475Z,2424.00
2023-04-15T07:57:11.437Z,2428.00
2023-04-15T07:58:11.427Z,2452.00
2023-04-15T07:59:11.445Z,2464.00
2023-04-15T08:00:11.398Z,2412.00
2023-04-15T08:01:11.373Z,2512.00
2023-04-15T08:02:11.445Z,2320.00
2023-04-15T08:03:11.522Z,2372.00
2023-04-15T08:04:11.560Z,2360.00
2023-04-15T08:05:11.382Z,2428.00
2023-04-15T08:06:11.351Z,2268.00
2023-04-15T08:07:11.296Z,2280.00
2023-04-15T08:08:11.305Z,2396.00
2023-04-15T08:09:11.277Z,2576.00
2023-04-15T08:10:11.259Z,2720.00
2023-04-15T08:11:11.278Z,3000.00
2023-04-15T08:12:11.272Z,3108.00
2023-04-15T08:13:11.228Z,3240.00
2023-04-15T08:14:11.210Z,3428.00
2023-04-15T08:15:11.210Z,3436.00
2023-04-15T08:16:11.227Z,3480.00
2023-04-15T08:17:11.172Z,3584.00
2023-04-15T08:18:11.205Z,3308.00
2023-04-15T08:19:11.139Z,3168.00
2023-04-15T08:20:11.129Z,3140.00
2023-04-15T08:21:11.126Z,3616.00
2023-04-15T08:22:18.540Z,3732.00
2023-04-15T08:23:12.089Z,3696.00
2023-04-15T08:24:11.094Z,3840.00
2023-04-15T08:25:11.080Z,3780.00
2023-04-15T08:26:11.054Z,3948.00
2023-04-15T08:27:11.047Z,4008.00
2023-04-15T08:28:11.035Z,3812.00
2023-04-15T08:29:11.009Z,3944.00
2023-04-15T08:30:11.018Z,4256.00
2023-04-15T08:31:11.056Z,3884.00
2023-04-15T08:32:11.017Z,3772.00
2023-04-15T08:33:10.968Z,3680.00
2023-04-15T08:34:10.966Z,4004.00
2023-04-15T08:35:10.933Z,3796.00
2023-04-15T08:36:10.934Z,3444.00
2023-04-15T08:37:12.210Z,3260.00
2023-04-15T08:38:10.901Z,3704.00
2023-04-15T08:39:10.888Z,3700.00
2023-04-15T08:40:10.876Z,3564.00
2023-04-15T08:41:10.865Z,4000.00
2023-04-15T08:42:10.851Z,4192.00
2023-04-15T08:43:10.837Z,3944.00
2023-04-15T08:44:10.813Z,3724.00
2023-04-15T08:45:10.790Z,3704.00
2023-04-15T08:46:10.804Z,3996.00
2023-04-15T08:47:10.874Z,4176.00
2023-04-15T08:48:10.774Z,4136.00
2023-04-15T08:49:10.757Z,4132.00
2023-04-15T08:50:10.784Z,4312.00
2023-04-15T08:51:10.724Z,4312.00
2023-04-15T08:52:10.713Z,4196.00
2023-04-15T08:53:10.693Z,3968.00
2023-04-15T08:54:10.698Z,4340.00
2023-04-15T08:55:10.665Z,4380.00
2023-04-15T08:56:10.678Z,4436.00
2023-04-15T08:57:10.646Z,4644.00
2023-04-15T08:58:10.660Z,4956.00
2023-04-15T08:59:10.618Z,5260.00
2023-04-15T09:00:10.659Z,5236.00
2023-04-15T09:01:10.817Z,5200.00
2023-04-15T09:02:10.615Z,5020.00
2023-04-15T09:03:10.616Z,5008.00
2023-04-15T09:04:10.571Z,4708.00
2023-04-15T09:05:10.537Z,4748.00
2023-04-15T09:06:10.548Z,4612.00
2023-04-15T09:07:10.534Z,4552.00
2023-04-15T09:08:10.525Z,4484.00
2023-04-15T09:09:10.520Z,4520.00
2023-04-15T09:10:10.482Z,4532.00
2023-04-15T09:11:10.475Z,4484.00
2023-04-15T09:12:10.469Z,4476.00
2023-04-15T09:13:10.435Z,4996.00
2023-04-15T09:14:10.438Z,5128.00
2023-04-15T09:15:10.424Z,5316.00
2023-04-15T09:16:10.472Z,4876.00
2023-04-15T09:17:10.412Z,4856.00
2023-04-15T09:18:10.383Z,4764.00
2023-04-15T09:19:10.356Z,4776.00
2023-04-15T09:20:10.347Z,5580.00
2023-04-15T09:21:10.343Z,5184.00
2023-04-15T09:22:10.337Z,5288.00
2023-04-15T09:23:10.308Z,4776.00
2023-04-15T09:24:10.290Z,4616.00
2023-04-15T09:25:10.272Z,4348.00
2023-04-15T09:26:10.266Z,4128.00
2023-04-15T09:27:10.264Z,4152.00
2023-04-15T09:28:10.241Z,4260.00
2023-04-15T09:29:10.235Z,4168.00
2023-04-15T09:30:10.210Z,3852.00
2023-04-15T09:31:10.218Z,3576.00
2023-04-15T09:32:10.208Z,3756.00
2023-04-15T09:33:10.204Z,3856.00
2023-04-15T09:34:10.169Z,3668.00
2023-04-15T09:35:10.161Z,3144.00
2023-04-15T09:36:10.147Z,3204.00
2023-04-15T09:37:10.554Z,3260.00
2023-04-15T09:38:10.281Z,3396.00
2023-04-15T09:39:10.125Z,3228.00
2023-04-15T09:40:10.098Z,2820.00
2023-04-15T09:41:10.064Z,2984.00
2023-04-15T09:42:10.062Z,3060.00
2023-04-15T09:43:10.051Z,2908.00
2023-04-15T09:44:10.065Z,3024.00
2023-04-15T09:45:10.032Z,2668.00
2023-04-15T09:46:10.057Z,2584.00
2023-04-15T09:47:10.010Z,2948.00
2023-04-15T09:48:10.039Z,3044.00
2023-04-15T09:49:09.969Z,2808.00
2023-04-15T09:50:09.960Z,2660.00
2023-04-15T09:51:09.960Z,2764.00
2023-04-15T09:52:09.944Z,2716.00
2023-04-15T09:53:09.909Z,2564.00
2023-04-15T09:54:09.923Z,2796.00
2023-04-15T09:55:10.076Z,2812.00
2023-04-15T09:56:09.879Z,2692.00
2023-04-15T09:57:09.902Z,2804.00
2023-04-15T09:58:09.882Z,3076.00
2023-04-15T09:59:09.849Z,3120.00
2023-04-15T10:00:09.855Z,2904.00
2023-04-15T10:01:09.843Z,3184.00
2023-04-15T10:02:09.884Z,3260.00
2023-04-15T10:03:09.893Z,3172.00
2023-04-15T10:04:09.872Z,3108.00
2023-04-15T10:05:09.779Z,3256.00
2023-04-15T10:06:09.795Z,3680.00
2023-04-15T10:07:09.858Z,3716.00
2023-04-15T10:08:09.830Z,3668.00
2023-04-15T10:09:09.761Z,3508.00
2023-04-15T10:10:09.789Z,3884.00
2023-04-15T10:11:09.701Z,4016.00
2023-04-15T10:12:09.711Z,4220.00
2023-04-15T10:13:09.681Z,4844.00
2023-04-15T10:14:09.652Z,4904.00
2023-04-15T10:15:09.638Z,5460.00
2023-04-15T10:16:09.651Z,5096.00
2023-04-15T10:17:09.617Z,5380.00
2023-04-15T10:18:09.630Z,5516.00
2023-04-15T10:19:09.619Z,5300.00
2023-04-15T10:20:12.227Z,4852.00
2023-04-15T10:21:09.559Z,4732.00
2023-04-15T10:22:09.554Z,4808.00
2023-04-15T10:23:12.180Z,5076.00
2023-04-15T10:24:09.951Z,4976.00
2023-04-15T10:25:09.506Z,4208.00
2023-04-15T10:26:10.054Z,3996.00
2023-04-15T10:27:11.343Z,4176.00
2023-04-15T10:28:09.867Z,4052.00
2023-04-15T10:29:09.560Z,4148.00
2023-04-15T10:30:09.508Z,4456.00
2023-04-15T10:31:09.468Z,4464.00
2023-04-15T10:32:09.411Z,4652.00
2023-04-15T10:33:09.408Z,3820.00
2023-04-15T10:34:09.433Z,3968.00
2023-04-15T10:35:09.370Z,3724.00
2023-04-15T10:36:09.388Z,3784.00
2023-04-15T10:37:09.425Z,3804.00
2023-04-15T10:38:09.352Z,3480.00
2023-04-15T10:39:09.348Z,3216.00
2023-04-15T10:40:09.311Z,2940.00
2023-04-15T10:41:09.310Z,2756.00
2023-04-15T10:42:09.304Z,2664.00
2023-04-15T10:43:09.289Z,2976.00
2023-04-15T10:44:09.279Z,3112.00
2023-04-15T10:45:09.320Z,3264.00
2023-04-15T10:46:09.303Z,3176.00
2023-04-15T10:47:09.222Z,3260.00
2023-04-15T10:48:09.251Z,3120.00
2023-04-15T10:49:09.214Z,3144.00
2023-04-15T10:50:09.251Z,3100.00
2023-04-15T10:51:09.202Z,2980.00
2023-04-15T10:52:09.164Z,2880.00
2023-04-15T10:53:09.197Z,2628.00
2023-04-15T10:54:09.129Z,2288.00
2023-04-15T10:55:09.145Z,2396.00
2023-04-15T10:56:09.149Z,2384.00
2023-04-15T10:57:09.107Z,2652.00
2023-04-15T10:58:09.088Z,2584.00
2023-04-15T10:59:09.074Z,2628.00
2023-04-15T11:00:09.225Z,2532.00
2023-04-15T11:01:09.047Z,2440.00
2023-04-15T11:02:09.134Z,2624.00
2023-04-15T11:03:09.384Z,2452.00
2023-04-15T11:04:09.112Z,2764.00
2023-04-15T11:05:08.996Z,2684.00
2023-04-15T11:06:08.979Z,2752.00
2023-04-15T11:07:08.971Z,2836.00
2023-04-15T11:08:09.009Z,2656.00
2023-04-15T11:09:08.935Z,2856.00
2023-04-15T11:10:09.024Z,2584.00
2023-04-15T11:11:08.903Z,2344.00
2023-04-15T11:12:08.904Z,2896.00
2023-04-15T11:13:08.894Z,2840.00
2023-04-15T11:14:08.862Z,2928.00
2023-04-15T11:15:08.896Z,3040.00
2023-04-15T11:16:08.927Z,3200.00
2023-04-15T11:17:08.855Z,3116.00
2023-04-15T11:18:08.902Z,3192.00
2023-04-15T11:19:08.833Z,3332.00
2023-04-15T11:20:08.821Z,3260.00
2023-04-15T11:21:08.781Z,3240.00
2023-04-15T11:22:08.771Z,2920.00
2023-04-15T11:23:15.230Z,2676.00
2023-04-15T11:24:09.770Z,2716.00
2023-04-15T11:25:08.720Z,2520.00
2023-04-15T11:26:08.747Z,2552.00
2023-04-15T11:27:08.713Z,2548.00
2023-04-15T11:28:08.700Z,2684.00
2023-04-15T11:29:08.671Z,2584.00
2023-04-15T11:30:08.686Z,2488.00
2023-04-15T11:31:08.697Z,2252.00
2023-04-15T11:32:08.755Z,2300.00
2023-04-15T11:33:08.660Z,2608.00
2023-04-15T11:34:08.605Z,2424.00
2023-04-15T11:35:08.611Z,2520.00
2023-04-15T11:36:08.595Z,2388.00
2023-04-15T11:37:08.592Z,2136.00
2023-04-15T11:38:08.562Z,1988.00
2023-04-15T11:39:08.585Z,2244.00
2023-04-15T11:40:08.571Z,2024.00
2023-04-15T11:41:08.537Z,2000.00
2023-04-15T11:42:08.517Z,2120.00
2023-04-15T11:43:08.525Z,2184.00
2023-04-15T11:44:08.506Z,2240.00
2023-04-15T11:45:08.474Z,2560.00
2023-04-15T11:46:08.488Z,2816.00
2023-04-15T11:47:08.465Z,2912.00
2023-04-15T11:48:08.455Z,2852.00
2023-04-15T11:49:08.494Z,3108.00
2023-04-15T11:50:08.409Z,3244.00
2023-04-15T11:51:08.392Z,2928.00
2023-04-15T11:52:08.377Z,3352.00
2023-04-15T11:53:08.741Z,3560.00
2023-04-15T11:54:08.373Z,3820.00
2023-04-15T11:55:08.381Z,3816.00
2023-04-15T11:56:08.326Z,3884.00
2023-04-15T11:57:08.351Z,3808.00
2023-04-15T11:58:08.301Z,3896.00
2023-04-15T11:59:08.293Z,4128.00
2023-04-15T12:00:08.269Z,4064.00
2023-04-15T12:01:08.300Z,3560.00
2023-04-15T12:02:08.385Z,3292.00
2023-04-15T12:03:08.498Z,3156.00
2023-04-15T12:04:08.472Z,3336.00
2023-04-15T12:05:08.226Z,3544.00
2023-04-15T12:06:08.223Z,3856.00
2023-04-15T12:07:08.197Z,4428.00
2023-04-15T12:08:08.169Z,4832.00
2023-04-15T12:09:08.154Z,4092.00
2023-04-15T12:10:08.186Z,3024.00
2023-04-15T12:11:08.145Z,3352.00
2023-04-15T12:12:08.138Z,3332.00
2023-04-15T12:13:08.112Z,3560.00
2023-04-15T12:14:08.111Z,4020.00
2023-04-15T12:15:08.082Z,3648.00
2023-04-15T12:16:08.113Z,3488.00
2023-04-15T12:17:08.067Z,3308.00
2023-04-15T12:18:08.089Z,3592.00
2023-04-15T12:19:08.052Z,3788.00
2023-04-15T12:20:08.036Z,4008.00
2023-04-15T12:21:08.000Z,3940.00
2023-04-15T12:22:07.990Z,4544.00
2023-04-15T12:23:07.977Z,4552.00
2023-04-15T12:24:07.964Z,5484.00
2023-04-15T12:25:07.957Z,4540.00
2023-04-15T12:26:07.933Z,4928.00
2023-04-15T12:27:07.962Z,4596.00
2023-04-15T12:28:07.915Z,4448.00
2023-04-15T12:29:07.906Z,5204.00
2023-04-15T12:30:07.904Z,5944.00
2023-04-15T12:31:07.936Z,5276.00